Time;durP1;ratioP1;P1;durP2;ratioP2;P2;SDS_P1;SDS_P2;PMS_P1;PMS_P2;Temp;Humidity;BMP_temperature;BMP_pressure;BME280_temperature;BME280_humidity;BME280_pressure;Samples;Min_cycle;Max_cycle;Signal;HPM_P1;HPM_P2
2021/03/28 00:02:12;;;;;;;42.70;30.40;;;12.20;78.20;;;;;;5115978;28;20054;-71
2021/03/28 00:04:54;;;;;;;44.58;31.70;;;12.10;78.20;;;;;;5115844;28;20086;-72
2021/03/28 00:07:21;;;;;;;41.17;30.75;;;12.20;78.50;;;;;;5115532;28;20030;-71
2021/03/28 00:09:53;;;;;;;42.13;32.00;;;12.10;78.50;;;;;;5116078;28;20054;-71
2021/03/28 00:12:18;;;;;;;45.17;32.65;;;12.20;78.40;;;;;;5115954;28;20023;-71
2021/03/28 00:14:46;;;;;;;44.70;29.73;;;12.10;78.60;;;;;;5116234;28;20088;-71
2021/03/28 00:17:20;;;;;;;37.85;31.20;;;12.10;78.50;;;;;;5115522;28;20024;-72
2021/03/28 00:20:11;;;;;;;42.78;31.58;;;12.20;78.30;;;;;;5115429;28;20111;-71
2021/03/28 00:23:01;;;;;;;38.47;29.80;;;12.20;78.20;;;;;;5107882;28;20062;-71
2021/03/28 00:26:03;;;;;;;39.45;29.60;;;12.20;78.20;;;;;;5115481;28;20099;-71
2021/03/28 00:28:46;;;;;;;40.45;30.73;;;12.20;77.80;;;;;;5114310;28;20049;-71
2021/03/28 00:31:23;;;;;;;39.00;30.25;;;12.20;77.70;;;;;;5115365;28;20475;-71
2021/03/28 00:34:18;;;;;;;43.38;30.83;;;12.20;78.20;;;;;;5115421;28;20030;-71
2021/03/28 00:37:00;;;;;;;47.15;32.25;;;12.20;78.40;;;;;;5115378;28;20047;-71
2021/03/28 00:39:52;;;;;;;41.67;29.42;;;12.20;78.40;;;;;;5115273;28;20027;-71
2021/03/28 00:42:28;;;;;;;40.90;29.45;;;12.20;79.20;;;;;;5115109;28;20024;-71
2021/03/28 00:45:13;;;;;;;42.63;32.10;;;12.20;78.60;;;;;;5115256;28;20032;-71
2021/03/28 00:47:41;;;;;;;45.95;33.28;;;12.20;78.50;;;;;;5115188;28;20020;-71
2021/03/28 00:50:10;;;;;;;43.08;32.17;;;12.20;78.50;;;;;;5114692;28;20028;-71
2021/03/28 00:52:42;;;;;;;43.17;32.45;;;12.20;78.50;;;;;;5115148;28;20367;-71
2021/03/28 00:55:19;;;;;;;38.23;30.03;;;12.20;78.40;;;;;;5115218;28;20057;-71
2021/03/28 00:58:08;;;;;;;35.47;28.75;;;12.20;78.20;;;;;;5114048;28;20027;-71
2021/03/28 01:00:51;;;;;;;40.70;29.85;;;12.20;78.30;;;;;;5111944;28;20028;-72
2021/03/28 01:04:01;;;;;;;39.50;28.73;;;12.20;78.60;;;;;;5111574;28;20035;-72
2021/03/28 01:06:47;;;;;;;38.90;29.33;;;12.20;78.50;;;;;;5114635;28;20019;-71
2021/03/28 01:09:37;;;;;;;38.05;27.38;;;12.20;78.40;;;;;;5113301;28;20463;-72
2021/03/28 01:12:21;;;;;;;37.75;27.55;;;12.10;78.20;;;;;;5114458;28;20476;-71
2021/03/28 01:14:54;;;;;;;38.03;27.75;;;12.20;78.30;;;;;;5114262;28;20145;-71
2021/03/28 01:17:20;;;;;;;41.55;29.33;;;12.20;78.60;;;;;;5114399;28;20110;-71
2021/03/28 01:20:09;;;;;;;33.88;26.77;;;12.20;78.60;;;;;;5114442;28;20115;-71
2021/03/28 01:22:54;;;;;;;32.28;26.08;;;12.10;78.30;;;;;;5114032;28;20533;-72
2021/03/28 01:25:20;;;;;;;39.22;26.95;;;12.10;78.20;;;;;;5114312;28;20538;-71
2021/03/28 01:27:57;;;;;;;40.05;28.10;;;12.10;78.20;;;;;;5113942;27;20126;-71
2021/03/28 01:30:40;;;;;;;41.35;27.17;;;12.10;78.20;;;;;;5114290;28;20035;-72
2021/03/28 01:33:14;;;;;;;36.83;28.35;;;12.00;78.20;;;;;;5114130;28;20080;-71
2021/03/28 01:36:03;;;;;;;37.78;29.05;;;12.00;78.30;;;;;;5113750;28;20050;-71
2021/03/28 01:38:38;;;;;;;41.28;29.50;;;12.00;78.70;;;;;;5113793;28;20088;-72
2021/03/28 01:41:20;;;;;;;45.03;29.05;;;12.00;78.60;;;;;;5113936;28;20102;-71
2021/03/28 01:44:20;;;;;;;36.05;26.60;;;12.00;78.60;;;;;;5113320;28;20395;-71
2021/03/28 01:47:09;;;;;;;37.20;27.30;;;12.00;78.60;;;;;;5113923;28;20073;-71
2021/03/28 01:49:44;;;;;;;36.90;25.63;;;12.10;78.70;;;;;;5113714;28;20073;-71
2021/03/28 01:52:34;;;;;;;34.45;26.52;;;12.10;78.70;;;;;;5115033;28;20031;-71
2021/03/28 01:55:41;;;;;;;39.90;28.27;;;12.00;78.60;;;;;;5114046;28;20035;-71
2021/03/28 01:58:07;;;;;;;38.10;27.92;;;12.10;79.20;;;;;;5113460;28;20046;-71
2021/03/28 02:01:15;;;;;;;37.05;28.38;;;12.10;78.40;;;;;;5113663;28;20055;-72
2021/03/28 02:04:19;;;;;;;36.45;28.08;;;12.10;78.30;;;;;;5113838;28;20065;-72
2021/03/28 02:07:03;;;;;;;38.10;28.13;;;12.10;78.50;;;;;;5071206;28;20075;-72
2021/03/28 02:09:55;;;;;;;36.13;27.92;;;12.10;78.50;;;;;;5110841;28;20479;-71
2021/03/28 02:13:06;;;;;;;37.33;27.35;;;12.10;78.70;;;;;;5096884;28;20028;-72
2021/03/28 02:16:11;;;;;;;38.88;28.88;;;12.10;78.70;;;;;;5090108;28;20084;-71
2021/03/28 02:18:42;;;;;;;36.75;27.75;;;12.10;78.50;;;;;;5113709;28;20034;-71
2021/03/28 02:21:08;;;;;;;34.30;26.42;;;12.10;78.20;;;;;;5113750;28;20023;-71
2021/03/28 02:23:40;;;;;;;37.33;27.02;;;12.10;78.20;;;;;;5113517;28;20043;-72
2021/03/28 02:26:36;;;;;;;42.85;27.90;;;12.10;78.30;;;;;;5113400;28;20042;-71
2021/03/28 02:29:12;;;;;;;35.10;26.30;;;12.10;78.40;;;;;;5113647;28;20066;-71
2021/03/28 02:32:15;;;;;;;37.05;27.45;;;12.10;78.40;;;;;;5113580;28;20024;-72
2021/03/28 02:35:04;;;;;;;31.95;26.52;;;12.10;78.30;;;;;;5113473;28;20023;-71
2021/03/28 02:37:49;;;;;;;36.50;27.25;;;12.10;78.50;;;;;;5113281;28;20027;-72
2021/03/28 02:40:33;;;;;;;36.17;26.85;;;12.10;78.50;;;;;;5113736;28;20020;-71
2021/03/28 02:43:11;;;;;;;34.88;24.90;;;12.00;78.30;;;;;;5113449;28;20036;-71
2021/03/28 02:45:44;;;;;;;34.38;26.90;;;12.00;78.20;;;;;;5113567;28;20023;-71
2021/03/28 02:48:59;;;;;;;37.42;26.33;;;12.00;78.30;;;;;;5113186;28;20030;-71
2021/03/28 02:51:48;;;;;;;35.65;24.60;;;12.00;78.30;;;;;;5113431;28;20059;-71
2021/03/28 02:54:19;;;;;;;31.13;25.88;;;12.00;78.00;;;;;;5113375;28;20023;-71
2021/03/28 02:57:03;;;;;;;34.70;26.27;;;12.00;77.80;;;;;;5116493;28;20032;-71
2021/03/28 02:59:37;;;;;;;32.10;25.23;;;12.00;78.20;;;;;;5116820;28;20099;-71
2021/03/28 03:02:40;;;;;;;32.53;25.13;;;12.00;78.90;;;;;;5116877;28;20509;-71
2021/03/28 03:05:06;;;;;;;33.60;24.95;;;12.00;78.30;;;;;;5116992;28;20040;-71
2021/03/28 03:08:01;;;;;;;33.55;25.10;;;12.00;78.40;;;;;;5115929;28;20506;-71
2021/03/28 03:10:48;;;;;;;31.80;25.20;;;12.00;78.50;;;;;;5116992;28;20019;-71
2021/03/28 03:13:47;;;;;;;33.92;25.45;;;11.90;78.50;;;;;;5116680;28;20055;-71
2021/03/28 03:16:33;;;;;;;32.25;24.20;;;11.90;79.10;;;;;;5115671;28;20353;-71
2021/03/28 03:19:29;;;;;;;33.65;23.75;;;11.90;79.00;;;;;;5116726;28;20046;-71
2021/03/28 03:22:13;;;;;;;33.42;23.60;;;12.00;78.50;;;;;;5116701;28;20389;-71
2021/03/28 03:25:00;;;;;;;34.20;24.83;;;12.00;78.30;;;;;;5116819;28;20066;-71
2021/03/28 03:27:54;;;;;;;32.28;24.80;;;12.00;78.60;;;;;;5116541;28;20498;-71
2021/03/28 03:30:45;;;;;;;36.55;26.38;;;12.00;78.60;;;;;;5101095;28;20042;-71
2021/03/28 03:33:27;;;;;;;30.63;26.05;;;12.00;78.80;;;;;;5116355;28;20032;-71
2021/03/28 03:36:18;;;;;;;32.08;26.90;;;11.90;79.10;;;;;;5116501;28;20137;-71
2021/03/28 03:39:14;;;;;;;35.60;25.70;;;12.00;79.00;;;;;;5111544;28;20119;-71
2021/03/28 03:41:52;;;;;;;28.63;24.83;;;11.90;79.70;;;;;;5116493;28;20032;-71
2021/03/28 03:44:55;;;;;;;33.67;24.48;;;11.90;79.30;;;;;;5116061;28;20063;-71
2021/03/28 03:47:31;;;;;;;40.38;25.80;;;11.90;79.30;;;;;;5116303;28;20024;-71
2021/03/28 03:50:16;;;;;;;29.15;23.13;;;11.90;79.30;;;;;;5116475;28;20108;-71
2021/03/28 03:52:56;;;;;;;30.83;22.80;;;11.90;79.40;;;;;;5116476;28;20026;-72
2021/03/28 03:55:54;;;;;;;30.15;21.33;;;11.90;79.40;;;;;;5116385;28;20031;-71
2021/03/28 03:58:33;;;;;;;31.63;22.25;;;11.90;79.30;;;;;;5115995;28;20051;-71
2021/03/28 04:01:17;;;;;;;30.63;21.80;;;11.90;79.80;;;;;;5116170;28;20471;-71
2021/03/28 04:03:54;;;;;;;29.48;21.70;;;11.90;79.00;;;;;;5115994;28;20027;-71
2021/03/28 04:06:41;;;;;;;29.70;22.13;;;11.90;78.90;;;;;;5115380;28;20028;-71
2021/03/28 04:09:12;;;;;;;28.33;21.27;;;11.90;78.80;;;;;;5115793;28;20028;-72
2021/03/28 04:11:53;;;;;;;34.30;22.10;;;11.90;78.70;;;;;;5115778;28;20034;-71
2021/03/28 04:14:38;;;;;;;29.35;21.30;;;11.90;78.50;;;;;;5115530;28;20039;-71
2021/03/28 04:17:24;;;;;;;29.85;20.95;;;11.90;78.70;;;;;;5115231;28;20024;-71
2021/03/28 04:20:18;;;;;;;26.95;19.85;;;11.90;78.70;;;;;;5115390;28;20016;-71
2021/03/28 04:23:20;;;;;;;26.00;20.75;;;11.90;78.60;;;;;;5115506;28;20059;-71
2021/03/28 04:25:54;;;;;;;25.42;19.60;;;11.90;78.50;;;;;;5115424;28;20098;-71
2021/03/28 04:28:23;;;;;;;24.90;19.15;;;11.90;78.50;;;;;;5115447;28;20063;-71
2021/03/28 04:31:25;;;;;;;28.25;20.30;;;11.90;78.60;;;;;;5115355;28;20019;-71
2021/03/28 04:34:20;;;;;;;24.63;20.08;;;11.90;78.40;;;;;;5099240;28;20058;-71
2021/03/28 04:37:25;;;;;;;30.67;21.17;;;11.90;78.20;;;;;;5113790;28;20111;-71
2021/03/28 04:40:38;;;;;;;32.72;20.33;;;11.90;78.50;;;;;;5099360;28;20480;-71
2021/03/28 04:43:35;;;;;;;31.67;21.30;;;11.90;78.40;;;;;;5111216;28;20079;-71
2021/03/28 04:46:00;;;;;;;30.35;23.38;;;11.90;78.30;;;;;;5115242;28;20073;-71
2021/03/28 04:48:32;;;;;;;34.65;25.92;;;11.90;78.40;;;;;;5114944;27;20371;-71
2021/03/28 04:51:22;;;;;;;31.77;22.93;;;11.90;78.50;;;;;;5115026;28;20031;-71
2021/03/28 04:54:18;;;;;;;32.80;23.73;;;11.90;78.90;;;;;;5115030;28;20024;-71
2021/03/28 04:57:00;;;;;;;32.05;23.92;;;11.90;78.70;;;;;;5115029;28;20028;-71
2021/03/28 04:59:53;;;;;;;35.87;24.10;;;11.90;78.90;;;;;;5114851;28;20486;-71
2021/03/28 05:02:25;;;;;;;33.00;22.98;;;11.90;78.90;;;;;;5114959;28;20027;-71
2021/03/28 05:05:15;;;;;;;31.52;24.10;;;11.80;79.00;;;;;;5114712;28;20471;-71
2021/03/28 05:07:58;;;;;;;28.70;23.05;;;11.80;79.20;;;;;;5114421;28;20028;-71
2021/03/28 05:10:23;;;;;;;;;;;11.80;79.10;;;;;;5114889;28;20019;-71
2021/03/28 05:13:15;;;;;;;31.73;23.67;;;11.80;79.10;;;;;;5114535;28;19927;-72
2021/03/28 05:15:44;;;;;;;35.63;25.48;;;11.80;78.90;;;;;;5114800;28;20030;-71
2021/03/28 05:18:21;;;;;;;33.58;25.95;;;11.80;78.70;;;;;;5113860;28;20093;-71
2021/03/28 05:20:59;;;;;;;34.40;26.95;;;11.80;78.80;;;;;;5114702;28;20047;-71
2021/03/28 05:23:51;;;;;;;32.47;25.45;;;11.80;78.90;;;;;;5114512;28;20067;-71
2021/03/28 05:26:23;;;;;;;33.45;26.33;;;11.80;79.30;;;;;;5114505;28;20131;-71
2021/03/28 05:29:16;;;;;;;36.42;26.52;;;11.80;79.10;;;;;;5113930;28;20024;-71
2021/03/28 05:32:00;;;;;;;;;;;11.80;79.70;;;;;;5114731;28;20031;-71
2021/03/28 05:34:31;;;;;;;31.88;24.55;;;11.80;79.40;;;;;;5114265;28;19907;-71
2021/03/28 05:37:39;;;;;;;40.33;26.67;;;11.80;78.70;;;;;;5114381;28;20035;-72
2021/03/28 05:40:17;;;;;;;31.75;26.40;;;11.80;78.60;;;;;;5094484;28;20028;-71
2021/03/28 05:43:20;;;;;;;32.70;24.98;;;11.80;78.90;;;;;;5113832;28;20106;-71
2021/03/28 05:46:23;;;;;;;34.78;26.17;;;11.80;79.10;;;;;;5114245;28;20055;-71
2021/03/28 05:49:23;;;;;;;31.98;24.92;;;11.80;79.20;;;;;;5114335;28;20107;-71
2021/03/28 05:52:04;;;;;;;34.53;24.02;;;11.80;79.20;;;;;;5114199;28;20108;-72
2021/03/28 05:55:06;;;;;;;28.15;25.00;;;11.80;79.00;;;;;;5113874;28;20028;-71
2021/03/28 05:58:01;;;;;;;32.78;25.25;;;11.80;78.80;;;;;;5113894;28;20027;-72
2021/03/28 06:01:04;;;;;;;33.08;24.52;;;11.80;78.80;;;;;;5113843;28;20027;-71
2021/03/28 06:04:07;;;;;;;36.50;26.00;;;11.80;79.00;;;;;;5113674;28;20066;-72
2021/03/28 06:07:10;;;;;;;33.53;25.20;;;11.90;78.70;;;;;;5113551;28;20024;-71
2021/03/28 06:09:54;;;;;;;;;;;11.80;78.50;;;;;;5114028;28;20027;-71
2021/03/28 06:12:56;;;;;;;36.67;24.70;;;11.90;78.80;;;;;;5113585;28;19903;-71
2021/03/28 06:15:43;;;;;;;32.13;24.85;;;11.90;79.50;;;;;;5114014;27;20063;-71
2021/03/28 06:18:41;;;;;;;30.35;24.67;;;11.90;79.90;;;;;;5110524;28;20024;-71
2021/03/28 06:21:34;;;;;;;37.03;26.90;;;11.90;80.30;;;;;;5108884;28;20372;-71
2021/03/28 06:24:18;;;;;;;;;;;11.80;80.30;;;;;;5111197;28;20047;-72
2021/03/28 06:27:14;;;;;;;41.58;26.58;;;11.80;80.20;;;;;;5113458;28;19908;-71
2021/03/28 06:30:02;;;;;;;35.35;25.60;;;11.80;80.00;;;;;;5114900;28;20077;-71
2021/03/28 06:32:57;;;;;;;30.73;24.60;;;11.80;79.70;;;;;;5117619;28;20055;-71
2021/03/28 06:35:56;;;;;;;35.97;26.60;;;11.80;80.10;;;;;;5114564;28;20479;-71
2021/03/28 06:38:51;;;;;;;39.45;26.75;;;11.90;80.10;;;;;;5114726;28;20028;-70
2021/03/28 06:41:35;;;;;;;30.52;25.45;;;11.90;80.30;;;;;;5116273;28;20522;-70
2021/03/28 06:44:19;;;;;;;35.42;25.85;;;11.90;80.60;;;;;;5117207;28;20036;-72
2021/03/28 06:47:14;;;;;;;37.38;27.05;;;11.90;80.70;;;;;;5117573;28;20019;-70
2021/03/28 06:49:58;;;;;;;32.45;25.92;;;11.90;80.90;;;;;;5114385;28;20122;-71
2021/03/28 06:52:55;;;;;;;32.45;26.05;;;12.00;80.70;;;;;;5114428;28;20111;-71
2021/03/28 06:55:43;;;;;;;31.92;24.88;;;12.00;80.60;;;;;;5117305;28;20390;-71
2021/03/28 06:58:15;;;;;;;31.60;24.33;;;12.00;80.40;;;;;;5116877;28;20047;-72
2021/03/28 07:00:58;;;;;;;34.78;26.50;;;12.10;80.30;;;;;;5116969;28;20020;-71
2021/03/28 07:04:03;;;;;;;33.78;25.60;;;12.00;80.10;;;;;;5117154;28;20024;-71
2021/03/28 07:06:41;;;;;;;31.77;24.95;;;12.10;79.90;;;;;;5116944;28;20027;-71
2021/03/28 07:09:31;;;;;;;28.80;23.17;;;12.10;80.10;;;;;;5116980;28;20035;-71
2021/03/28 07:12:17;;;;;;;30.25;22.33;;;12.20;79.90;;;;;;5116932;28;20030;-71
2021/03/28 07:15:20;;;;;;;28.85;20.00;;;12.20;79.50;;;;;;5094821;28;20083;-71
2021/03/28 07:18:04;;;;;;;34.30;20.92;;;12.30;79.00;;;;;;5116702;28;20028;-71
2021/03/28 07:21:01;;;;;;;23.40;16.60;;;12.30;78.60;;;;;;5116676;28;20024;-72
2021/03/28 07:24:14;;;;;;;26.48;16.75;;;12.40;78.30;;;;;;5116556;28;20035;-72
2021/03/28 07:26:58;;;;;;;25.42;16.52;;;12.40;77.90;;;;;;5073781;28;20028;-71
2021/03/28 07:29:52;;;;;;;19.83;16.80;;;12.40;77.70;;;;;;5112608;28;20547;-72
2021/03/28 07:32:18;;;;;;;22.92;16.30;;;12.50;77.30;;;;;;5116289;28;20032;-71
2021/03/28 07:34:43;;;;;;;22.05;15.25;;;12.50;77.00;;;;;;5116436;28;20593;-71
2021/03/28 07:37:30;;;;;;;23.38;15.40;;;12.50;76.90;;;;;;5116000;28;20038;-71
2021/03/28 07:40:20;;;;;;;23.55;14.75;;;12.60;76.70;;;;;;5116123;28;20028;-71
2021/03/28 07:43:07;;;;;;;21.33;13.77;;;12.60;77.40;;;;;;5112784;28;20490;-71
2021/03/28 07:46:12;;;;;;;24.45;14.73;;;12.70;77.60;;;;;;5112882;28;20028;-70
2021/03/28 07:49:02;;;;;;;22.95;14.90;;;12.70;77.00;;;;;;5113463;28;20550;-70
2021/03/28 07:51:46;;;;;;;20.05;14.25;;;12.70;76.70;;;;;;5115827;28;20027;-71
2021/03/28 07:54:34;;;;;;;26.67;14.45;;;12.80;76.80;;;;;;5116072;28;20016;-70
2021/03/28 07:57:15;;;;;;;20.15;13.38;;;12.80;76.80;;;;;;5116098;28;20030;-70
2021/03/28 07:59:55;;;;;;;16.98;13.73;;;12.90;76.70;;;;;;5115616;28;20024;-71
2021/03/28 08:02:40;;;;;;;20.20;12.70;;;12.90;76.50;;;;;;5115950;28;20033;-70
2021/03/28 08:05:25;;;;;;;24.52;13.55;;;12.90;76.40;;;;;;5115710;28;20089;-70
2021/03/28 08:07:52;;;;;;;25.17;14.10;;;13.00;76.80;;;;;;5115727;28;20031;-70
2021/03/28 08:10:33;;;;;;;18.27;13.07;;;13.00;76.40;;;;;;5115835;28;20032;-70
2021/03/28 08:13:33;;;;;;;21.42;13.80;;;13.00;76.60;;;;;;5112628;28;20054;-71
2021/03/28 08:16:10;;;;;;;22.50;13.98;;;13.00;76.50;;;;;;5112443;28;20039;-70
2021/03/28 08:19:01;;;;;;;20.45;13.40;;;13.10;76.00;;;;;;5115753;28;20015;-81
2021/03/28 08:21:52;;;;;;;21.60;12.68;;;13.10;75.70;;;;;;5115862;28;20059;-81
2021/03/28 08:24:43;;;;;;;21.95;12.93;;;13.10;75.90;;;;;;5115540;28;20074;-70
2021/03/28 08:27:25;;;;;;;22.33;12.40;;;13.10;75.40;;;;;;5114509;28;20506;-77
2021/03/28 08:30:00;;;;;;;20.67;11.98;;;13.20;75.80;;;;;;5113834;28;20024;-81
2021/03/28 08:32:43;;;;;;;18.33;11.75;;;13.20;75.40;;;;;;5113327;28;20046;-81
2021/03/28 08:35:39;;;;;;;17.58;12.10;;;13.30;75.40;;;;;;5081979;28;20135;-82
2021/03/28 08:38:36;;;;;;;20.60;11.35;;;13.30;75.20;;;;;;5071905;28;20146;-81
2021/03/28 08:41:35;;;;;;;17.70;12.13;;;13.30;75.20;;;;;;5073867;28;20020;-80
2021/03/28 08:44:22;;;;;;;19.75;11.85;;;13.40;75.00;;;;;;5073347;28;20040;-82
2021/03/28 08:47:15;;;;;;;15.00;10.95;;;13.40;74.90;;;;;;5073782;28;20031;-81
2021/03/28 08:50:04;;;;;;;16.27;10.93;;;13.50;74.80;;;;;;5073790;28;20024;-82
2021/03/28 08:52:56;;;;;;;17.88;12.05;;;13.50;74.60;;;;;;5067350;28;20033;-72
2021/03/28 08:56:07;;;;;;;22.73;11.57;;;13.50;74.60;;;;;;5074107;28;20034;-83
2021/03/28 08:58:58;;;;;;;18.42;11.32;;;13.60;74.60;;;;;;5072391;28;20031;-82
2021/03/28 09:01:46;;;;;;;24.52;11.25;;;13.70;74.50;;;;;;5049805;28;20087;-72
2021/03/28 09:04:29;;;;;;;15.93;9.65;;;13.70;74.30;;;;;;5071539;28;20527;-80
2021/03/28 09:07:13;;;;;;;;;;;13.70;74.60;;;;;;5074660;28;20039;-81
2021/03/28 09:10:00;;;;;;;92.22;12.10;;;13.80;74.30;;;;;;5077541;28;20356;-72
2021/03/28 09:12:35;;;;;;;15.23;10.20;;;13.80;74.00;;;;;;5076186;28;20066;-69
2021/03/28 09:15:19;;;;;;;29.85;11.55;;;14.00;79.40;;;;;;5079671;28;20516;-69
2021/03/28 09:17:57;;;;;;;12.45;9.45;;;14.00;74.30;;;;;;5080657;28;20059;-67
2021/03/28 09:20:31;;;;;;;13.40;8.85;;;14.00;73.50;;;;;;5081169;28;20107;-77
2021/03/28 09:23:03;;;;;;;20.92;9.50;;;14.10;72.90;;;;;;5079437;28;20036;-68
2021/03/28 09:25:58;;;;;;;31.20;9.48;;;14.20;72.80;;;;;;5074925;28;20067;-75
2021/03/28 09:28:45;;;;;;;19.73;9.48;;;14.20;72.70;;;;;;5073751;28;20044;-67
2021/03/28 09:31:15;;;;;;;15.73;9.82;;;14.30;72.40;;;;;;5072842;28;20043;-67
2021/03/28 09:33:57;;;;;;;18.05;9.88;;;14.40;72.30;;;;;;5073161;28;20099;-67
2021/03/28 09:36:56;;;;;;;22.00;10.77;;;14.40;72.00;;;;;;5073114;28;20046;-70
2021/03/28 09:39:48;;;;;;;15.55;10.85;;;14.50;71.40;;;;;;5067811;28;20040;-67
2021/03/28 09:42:14;;;;;;;18.58;11.25;;;14.50;71.10;;;;;;5073784;28;20048;-76
2021/03/28 09:44:43;;;;;;;19.83;13.05;;;14.50;71.40;;;;;;5073367;28;20432;-66
2021/03/28 09:47:37;;;;;;;22.10;13.00;;;14.60;71.70;;;;;;5073322;28;20028;-67
2021/03/28 09:50:19;;;;;;;20.10;12.70;;;14.50;71.30;;;;;;5072484;28;20028;-66
2021/03/28 09:53:14;;;;;;;21.38;11.98;;;14.60;71.30;;;;;;5071108;28;20369;-69
2021/03/28 09:56:01;;;;;;;17.70;12.15;;;14.60;71.20;;;;;;5071770;28;20064;-67
2021/03/28 09:58:41;;;;;;;21.88;12.73;;;14.60;71.20;;;;;;5073060;28;20051;-67
2021/03/28 10:01:09;;;;;;;18.52;11.50;;;14.70;71.00;;;;;;5072734;28;20020;-76
2021/03/28 10:03:49;;;;;;;18.73;11.52;;;14.70;70.50;;;;;;5072298;28;20037;-66
2021/03/28 10:06:20;;;;;;;16.70;11.38;;;14.70;70.60;;;;;;5073160;28;20059;-69
2021/03/28 10:08:50;;;;;;;18.38;10.52;;;14.80;70.50;;;;;;5072912;28;20439;-66
2021/03/28 10:11:38;;;;;;;16.30;11.00;;;14.80;70.30;;;;;;5072616;28;20021;-67
2021/03/28 10:14:18;;;;;;;13.00;9.68;;;14.80;69.90;;;;;;5072442;28;20049;-66
2021/03/28 10:16:50;;;;;;;15.07;10.52;;;14.90;69.60;;;;;;5072845;28;20041;-68
2021/03/28 10:19:55;;;;;;;15.43;8.10;;;14.90;69.30;;;;;;5072633;28;20035;-66
2021/03/28 10:22:51;;;;;;;13.20;7.78;;;14.90;67.90;;;;;;5063918;28;20392;-66
2021/03/28 10:26:10;;;;;;;13.27;6.82;;;14.90;68.40;;;;;;5072758;28;20025;-71
2021/03/28 10:29:06;;;;;;;14.10;7.10;;;15.00;67.50;;;;;;5030904;28;20064;-69
2021/03/28 10:31:57;;;;;;;9.35;6.93;;;14.90;66.60;;;;;;5072703;28;20119;-66
2021/03/28 10:35:00;;;;;;;10.43;6.53;;;14.90;66.30;;;;;;5072266;28;20032;-66
2021/03/28 10:37:40;;;;;;;12.70;6.28;;;14.90;66.60;;;;;;5072189;28;20025;-66
2021/03/28 10:40:21;;;;;;;9.43;6.28;;;14.90;66.30;;;;;;5071595;28;20037;-66
2021/03/28 10:43:24;;;;;;;11.68;6.35;;;14.90;66.80;;;;;;5072127;28;20032;-66
2021/03/28 10:45:52;;;;;;;9.15;6.65;;;14.90;65.80;;;;;;5072299;28;20032;-67
2021/03/28 10:48:55;;;;;;;16.52;6.32;;;14.90;65.50;;;;;;5072551;28;20481;-72
2021/03/28 10:51:32;;;;;;;8.18;5.90;;;14.90;65.80;;;;;;5072901;28;20025;-72
2021/03/28 10:54:19;;;;;;;13.15;6.25;;;14.90;65.70;;;;;;5072468;28;20029;-66
2021/03/28 10:57:05;;;;;;;9.48;5.75;;;14.90;65.90;;;;;;5072753;28;20119;-75
2021/03/28 10:59:55;;;;;;;10.85;5.40;;;14.90;65.90;;;;;;5047322;28;20028;-67
2021/03/28 11:02:47;;;;;;;10.10;5.95;;;14.90;66.00;;;;;;5068587;28;20036;-69
2021/03/28 11:05:34;;;;;;;12.13;6.05;;;14.90;65.90;;;;;;5050835;28;20094;-67
2021/03/28 11:08:21;;;;;;;12.88;5.63;;;14.90;65.50;;;;;;5072431;28;20063;-75
2021/03/28 11:11:09;;;;;;;9.02;5.75;;;14.90;65.60;;;;;;5072312;28;20029;-67
2021/03/28 11:13:59;;;;;;;10.65;4.95;;;14.90;65.30;;;;;;5071866;28;20405;-75
2021/03/28 11:16:49;;;;;;;8.77;5.28;;;14.90;65.10;;;;;;5073105;28;20024;-67
2021/03/28 11:19:53;;;;;;;8.95;5.20;;;14.90;64.90;;;;;;5075769;28;20031;-67
2021/03/28 11:22:18;;;;;;;13.77;4.88;;;14.90;65.10;;;;;;5075739;28;20021;-66
2021/03/28 11:25:16;;;;;;;8.55;4.78;;;14.80;64.70;;;;;;5075654;28;20090;-67
2021/03/28 11:27:54;;;;;;;10.70;4.72;;;14.90;64.60;;;;;;5075700;28;20027;-67
2021/03/28 11:30:23;;;;;;;12.02;5.30;;;14.80;64.40;;;;;;5075981;28;20115;-66
2021/03/28 11:33:00;;;;;;;11.27;5.25;;;14.80;64.70;;;;;;5075701;28;20021;-66
2021/03/28 11:35:41;;;;;;;6.95;5.18;;;14.80;64.70;;;;;;5075356;28;20051;-77
2021/03/28 11:38:18;;;;;;;10.38;5.03;;;14.70;65.10;;;;;;5075540;28;20060;-66
2021/03/28 11:40:52;;;;;;;10.60;5.60;;;14.70;64.80;;;;;;5075829;28;20094;-67
2021/03/28 11:43:32;;;;;;;14.50;5.30;;;14.70;64.30;;;;;;5075072;28;20032;-66
2021/03/28 11:46:03;;;;;;;8.90;5.00;;;14.70;64.70;;;;;;5075349;28;20032;-66
2021/03/28 11:48:45;;;;;;;9.45;4.63;;;14.70;64.80;;;;;;5074342;28;20101;-65
2021/03/28 11:51:36;;;;;;;7.93;4.68;;;14.70;64.70;;;;;;5072668;28;20028;-66
2021/03/28 11:54:13;;;;;;;8.85;4.38;;;14.80;64.60;;;;;;5072337;28;20074;-66
2021/03/28 11:56:56;;;;;;;9.00;5.03;;;14.70;64.20;;;;;;5075033;28;20440;-66
2021/03/28 11:59:26;;;;;;;13.48;5.75;;;14.80;64.30;;;;;;5074421;28;20104;-66
2021/03/28 12:01:54;;;;;;;7.10;4.70;;;14.80;65.20;;;;;;5073746;28;20370;-65
2021/03/28 12:04:32;;;;;;;8.82;4.68;;;14.90;65.40;;;;;;5074291;28;20492;-65
2021/03/28 12:07:30;;;;;;;7.50;4.53;;;14.90;65.00;;;;;;5073987;28;20028;-72
2021/03/28 12:09:58;;;;;;;7.50;4.57;;;15.00;64.60;;;;;;5070819;28;20033;-66
2021/03/28 12:12:33;;;;;;;8.77;4.28;;;15.00;64.50;;;;;;5074573;28;20032;-65
2021/03/28 12:15:38;;;;;;;7.95;4.20;;;15.00;63.80;;;;;;5073447;28;20086;-65
2021/03/28 12:21:03;;;;;;;5.40;4.20;;;15.00;63.70;;;;;;5073918;28;20033;-66
2021/03/28 12:23:49;;;;;;;6.93;4.00;;;15.00;63.70;;;;;;5073476;28;20048;-66
2021/03/28 12:26:28;;;;;;;7.45;3.88;;;15.00;64.00;;;;;;5075544;28;20297;-65
2021/03/28 12:29:11;;;;;;;8.57;4.57;;;15.00;63.70;;;;;;5073833;28;20389;-65
2021/03/28 12:31:47;;;;;;;9.27;4.10;;;15.00;63.50;;;;;;5074519;28;20028;-65
2021/03/28 12:34:30;;;;;;;9.10;3.40;;;14.90;63.00;;;;;;5073215;28;20029;-67
2021/03/28 12:37:02;;;;;;;8.80;4.38;;;14.90;63.00;;;;;;5071731;28;20028;-66
2021/03/28 12:39:30;;;;;;;10.45;4.35;;;14.90;63.00;;;;;;5071864;28;20036;-66
2021/03/28 12:42:02;;;;;;;8.85;4.10;;;14.90;63.00;;;;;;5073890;28;20029;-65
2021/03/28 12:44:34;;;;;;;5.57;3.63;;;14.90;63.50;;;;;;5074401;28;20480;-66
2021/03/28 12:47:05;;;;;;;5.97;3.65;;;14.90;63.20;;;;;;5074321;28;20066;-65
2021/03/28 12:49:51;;;;;;;9.02;3.92;;;14.90;63.10;;;;;;5074169;28;20027;-74
2021/03/28 12:52:25;;;;;;;6.40;4.05;;;15.00;62.80;;;;;;5074226;28;20021;-67
2021/03/28 12:54:52;;;;;;;9.48;4.15;;;15.10;63.20;;;;;;5074035;28;20385;-66
2021/03/28 12:57:38;;;;;;;10.10;3.63;;;15.10;63.30;;;;;;5073712;28;20037;-66
2021/03/28 13:00:16;;;;;;;7.78;4.10;;;15.20;62.70;;;;;;5074083;28;20020;-78
2021/03/28 13:02:44;;;;;;;8.65;5.50;;;15.20;62.40;;;;;;5074338;28;20036;-66
2021/03/28 13:05:25;;;;;;;7.30;4.15;;;15.20;62.50;;;;;;5073728;28;20035;-65
2021/03/28 13:07:55;;;;;;;6.00;3.80;;;15.30;62.40;;;;;;5073849;28;20012;-66
2021/03/28 13:10:33;;;;;;;10.68;3.85;;;15.30;62.20;;;;;;5073743;28;20036;-66
2021/03/28 13:13:19;;;;;;;6.93;3.42;;;15.30;61.90;;;;;;5071863;28;20123;-66
2021/03/28 13:15:57;;;;;;;5.72;3.58;;;15.30;61.20;;;;;;5072376;28;20436;-66
2021/03/28 13:18:26;;;;;;;7.93;3.60;;;15.30;61.60;;;;;;5072698;28;20108;-65
2021/03/28 13:21:17;;;;;;;5.93;3.53;;;15.30;62.40;;;;;;5073528;28;20123;-67
2021/03/28 13:23:48;;;;;;;8.40;3.92;;;15.40;61.60;;;;;;5073465;28;20119;-64
2021/03/28 13:26:28;;;;;;;7.32;4.03;;;15.40;61.40;;;;;;5073505;28;20552;-65
2021/03/28 13:28:59;;;;;;;7.45;3.72;;;15.60;61.60;;;;;;5073508;28;20029;-64
2021/03/28 13:31:43;;;;;;;9.98;3.90;;;15.80;61.20;;;;;;5073594;28;20024;-65
2021/03/28 13:34:27;;;;;;;5.13;3.50;;;16.00;60.90;;;;;;5073526;28;20044;-65
2021/03/28 13:37:31;;;;;;;6.95;3.78;;;16.10;60.60;;;;;;5073285;28;20024;-65
2021/03/28 13:40:03;;;;;;;9.20;3.63;;;16.10;59.40;;;;;;5072790;28;20059;-65
2021/03/28 13:42:37;;;;;;;5.95;3.45;;;16.20;59.30;;;;;;5073237;28;20028;-66
2021/03/28 13:45:37;;;;;;;8.38;3.83;;;16.30;59.50;;;;;;5072990;28;20055;-65
2021/03/28 13:48:09;;;;;;;5.13;3.28;;;16.40;58.70;;;;;;5071806;28;20095;-65
2021/03/28 13:50:49;;;;;;;7.73;3.70;;;16.40;58.20;;;;;;5070826;28;20025;-66
2021/03/28 13:53:36;;;;;;;4.05;3.03;;;16.50;58.10;;;;;;5069284;28;20043;-66
2021/03/28 13:56:47;;;;;;;6.55;3.67;;;16.50;59.20;;;;;;5069762;28;20111;-65
2021/03/28 13:59:13;;;;;;;6.32;3.50;;;;;;;;;;5070689;28;20112;-65
2021/03/28 14:01:41;;;;;;;8.40;3.78;;;16.50;90.20;;;;;;5073293;28;20028;-65
2021/03/28 14:04:36;;;;;;;10.13;3.50;;;16.70;58.10;;;;;;5073230;28;20380;-77
2021/03/28 14:07:11;;;;;;;6.32;3.65;;;16.70;58.40;;;;;;5072135;28;20492;-65